createdAt,value
2022-10-21T00:02:02.646Z,2.84
2022-10-21T00:04:32.175Z,2.63
2022-10-21T00:07:01.220Z,2.43
2022-10-21T00:09:28.267Z,2.23
2022-10-21T00:11:55.299Z,2.08
2022-10-21T00:14:23.599Z,2.61
2022-10-21T00:16:50.946Z,3.33
2022-10-21T00:19:18.326Z,3.51
2022-10-21T00:21:47.517Z,3.40
2022-10-21T00:24:17.004Z,3.20
2022-10-21T00:26:44.205Z,2.95
2022-10-21T00:29:11.441Z,2.72
2022-10-21T00:31:39.163Z,2.48
2022-10-21T00:34:06.245Z,2.28
2022-10-21T00:36:33.393Z,2.13
2022-10-21T00:39:00.329Z,2.66
2022-10-21T00:41:27.866Z,3.35
2022-10-21T00:44:00.203Z,3.46
2022-10-21T00:46:38.746Z,3.30
2022-10-21T00:49:08.169Z,3.03
2022-10-21T00:51:36.276Z,2.78
2022-10-21T00:54:03.338Z,2.61
2022-10-21T00:56:31.229Z,2.46
2022-10-21T00:58:59.211Z,2.33
2022-10-21T01:01:26.461Z,2.21
2022-10-21T01:03:53.665Z,2.72
2022-10-21T01:06:22.263Z,3.36
2022-10-21T01:08:50.664Z,3.47
2022-10-21T01:11:19.001Z,3.31
2022-10-21T01:14:15.148Z,3.06
2022-10-21T01:16:48.430Z,2.76
2022-10-21T01:19:57.706Z,2.53
2022-10-21T01:22:43.112Z,2.28
2022-10-21T01:25:30.101Z,2.06
2022-10-21T01:28:06.208Z,1.89
2022-10-21T01:30:43.975Z,2.56
2022-10-21T01:33:23.674Z,3.22
2022-10-21T01:35:58.149Z,3.27
2022-10-21T01:38:40.618Z,3.00
2022-10-21T01:41:17.696Z,2.70
2022-10-21T01:44:06.456Z,2.46
2022-10-21T01:46:49.317Z,2.19
2022-10-21T01:49:23.952Z,1.93
2022-10-21T01:51:52.108Z,1.71
2022-10-21T01:54:22.394Z,1.51
2022-10-21T01:56:49.296Z,1.96
2022-10-21T01:59:16.558Z,2.61
2022-10-21T02:01:43.604Z,2.74
2022-10-21T02:04:11.653Z,2.59
2022-10-21T02:06:39.717Z,2.29
2022-10-21T02:09:06.904Z,2.11
2022-10-21T02:11:35.851Z,1.86
2022-10-21T02:14:08.929Z,1.65
2022-10-21T02:16:38.159Z,1.36
2022-10-21T02:19:09.814Z,1.09
2022-10-21T02:21:39.385Z,1.57
2022-10-21T02:24:19.046Z,2.03
2022-10-21T02:26:46.392Z,1.98
2022-10-21T02:29:13.573Z,1.86
2022-10-21T02:32:02.095Z,1.73
2022-10-21T02:34:48.161Z,1.56
2022-10-21T02:37:49.982Z,1.42
2022-10-21T02:40:26.628Z,1.23
2022-10-21T02:43:06.309Z,1.12
2022-10-21T02:45:33.797Z,1.80
2022-10-21T02:48:00.791Z,2.51
2022-10-21T02:50:27.732Z,2.63
2022-10-21T02:52:54.727Z,2.49
2022-10-21T02:55:21.625Z,2.27
2022-10-21T02:57:49.095Z,2.06
2022-10-21T03:00:16.613Z,1.86
2022-10-21T03:02:44.510Z,1.69
2022-10-21T03:05:13.101Z,1.48
2022-10-21T03:07:41.610Z,1.20
2022-10-21T03:10:09.380Z,1.60
2022-10-21T03:12:36.303Z,2.22
2022-10-21T03:15:04.506Z,2.31
2022-10-21T03:17:31.615Z,2.09
2022-10-21T03:19:58.722Z,1.85
2022-10-21T03:22:28.520Z,1.63
2022-10-21T03:24:55.513Z,1.44
2022-10-21T03:27:22.622Z,1.25
2022-10-21T03:29:49.776Z,1.06
2022-10-21T03:32:16.723Z,1.49
2022-10-21T03:34:44.047Z,2.08
2022-10-21T03:37:11.212Z,2.19
2022-10-21T03:39:38.124Z,1.92
2022-10-21T03:42:07.794Z,1.55
2022-10-21T03:44:37.112Z,1.28
2022-10-21T03:47:04.210Z,0.97
2022-10-21T03:49:32.212Z,0.78
2022-10-21T03:51:59.264Z,0.66
2022-10-21T03:54:26.808Z,1.10
2022-10-21T03:56:54.017Z,1.80
2022-10-21T03:59:21.003Z,2.00
2022-10-21T04:01:47.985Z,1.86
2022-10-21T04:04:14.969Z,1.59
2022-10-21T04:06:44.202Z,1.35
2022-10-21T04:09:11.135Z,1.14
2022-10-21T04:11:41.717Z,0.97
2022-10-21T04:14:11.619Z,0.83
2022-10-21T04:16:41.693Z,1.37
2022-10-21T04:19:09.502Z,2.04
2022-10-21T04:21:36.502Z,2.14
2022-10-21T04:24:03.632Z,1.99
2022-10-21T04:26:31.320Z,1.78
2022-10-21T04:28:58.559Z,1.58
2022-10-21T04:31:29.801Z,1.40
2022-10-21T04:33:59.456Z,1.20
2022-10-21T04:36:26.610Z,1.02
2022-10-21T04:38:53.584Z,1.41
2022-10-21T04:41:20.499Z,1.99
2022-10-21T04:43:47.570Z,2.10
2022-10-21T04:46:16.979Z,1.94
2022-10-21T04:48:44.527Z,1.70
2022-10-21T04:51:11.835Z,1.47
2022-10-21T04:53:39.266Z,1.28
2022-10-21T04:56:06.963Z,1.11
2022-10-21T04:58:34.224Z,0.94
2022-10-21T05:01:01.231Z,0.77
2022-10-21T05:03:28.332Z,1.27
2022-10-21T05:05:55.321Z,1.97
2022-10-21T05:08:23.864Z,2.10
2022-10-21T05:10:57.235Z,1.95
2022-10-21T05:13:24.282Z,1.63
2022-10-21T05:15:51.741Z,1.35
2022-10-21T05:18:19.368Z,1.21
2022-10-21T05:20:52.889Z,1.12
2022-10-21T05:23:21.469Z,1.04
2022-10-21T05:25:48.570Z,1.58
2022-10-21T05:28:18.374Z,2.41
2022-10-21T05:30:45.427Z,2.75
2022-10-21T05:33:12.371Z,2.79
2022-10-21T05:35:40.760Z,2.70
2022-10-21T05:38:07.793Z,2.52
2022-10-21T05:40:34.694Z,2.40
2022-10-21T05:43:01.798Z,2.38
2022-10-21T05:45:29.238Z,2.35
2022-10-21T05:47:56.238Z,2.35
2022-10-21T05:50:23.741Z,2.38
2022-10-21T05:52:50.839Z,3.16
2022-10-21T05:55:17.801Z,4.23
2022-10-21T05:57:45.031Z,4.71
2022-10-21T06:00:12.822Z,4.93
2022-10-21T06:02:40.123Z,5.09
2022-10-21T06:05:07.980Z,5.18
2022-10-21T06:07:35.237Z,5.36
2022-10-21T06:10:04.424Z,5.60
2022-10-21T06:12:32.009Z,5.90
2022-10-21T06:14:59.129Z,6.15
2022-10-21T06:17:26.542Z,6.42
2022-10-21T06:19:53.450Z,6.70
2022-10-21T06:22:21.101Z,6.99
2022-10-21T06:24:48.168Z,7.28
2022-10-21T06:27:15.206Z,7.57
2022-10-21T06:29:42.131Z,7.78
2022-10-21T06:32:09.105Z,7.94
2022-10-21T06:34:36.084Z,8.02
2022-10-21T06:37:03.304Z,8.18
2022-10-21T06:39:31.576Z,8.40
2022-10-21T06:41:58.534Z,8.56
2022-10-21T06:44:47.595Z,8.64
2022-10-21T06:47:14.656Z,8.74
2022-10-21T06:49:42.770Z,9.04
2022-10-21T06:52:09.943Z,9.17
2022-10-21T06:54:38.805Z,9.41
2022-10-21T06:57:05.833Z,9.63
2022-10-21T06:59:33.060Z,9.79
2022-10-21T07:02:01.582Z,9.97
2022-10-21T07:04:29.277Z,10.11
2022-10-21T07:06:58.751Z,10.26
2022-10-21T07:09:25.833Z,10.36
2022-10-21T07:11:52.879Z,10.53
2022-10-21T07:14:20.419Z,10.72
2022-10-21T07:16:48.331Z,10.94
2022-10-21T07:19:16.548Z,11.16
2022-10-21T07:21:44.722Z,11.37
2022-10-21T07:24:16.286Z,11.64
2022-10-21T07:26:44.752Z,11.77
2022-10-21T07:29:12.241Z,11.97
2022-10-21T07:31:39.629Z,12.18
2022-10-21T07:34:08.244Z,12.45
2022-10-21T07:36:37.762Z,12.71
2022-10-21T07:39:07.910Z,12.91
2022-10-21T07:41:37.920Z,12.89
2022-10-21T07:44:05.967Z,12.89
2022-10-21T07:46:33.693Z,13.04
2022-10-21T07:49:00.632Z,13.22
2022-10-21T07:51:30.209Z,13.40
2022-10-21T07:53:58.710Z,13.62
2022-10-21T07:56:28.199Z,13.82
2022-10-21T07:58:55.542Z,13.96
2022-10-21T08:01:22.546Z,14.01
2022-10-21T08:03:49.824Z,14.00
2022-10-21T08:06:17.482Z,13.98
2022-10-21T08:08:45.238Z,14.04
2022-10-21T08:11:12.744Z,14.15
2022-10-21T08:13:41.661Z,14.15
2022-10-21T08:16:08.583Z,14.07
2022-10-21T08:18:38.150Z,13.95
2022-10-21T08:21:05.604Z,14.02
2022-10-21T08:23:32.943Z,13.80
2022-10-21T08:26:00.904Z,13.53
2022-10-21T08:28:29.327Z,13.42
2022-10-21T08:31:04.870Z,13.48
2022-10-21T08:33:32.270Z,13.87
2022-10-21T08:35:59.292Z,14.19
2022-10-21T08:38:26.314Z,14.60
2022-10-21T08:40:55.638Z,14.96
2022-10-21T08:43:24.865Z,15.26
2022-10-21T08:46:13.382Z,15.51
2022-10-21T08:48:43.976Z,15.77
2022-10-21T08:51:17.230Z,15.73
2022-10-21T08:53:46.110Z,15.63
2022-10-21T08:56:19.423Z,15.79
2022-10-21T08:58:48.085Z,15.80
2022-10-21T09:01:27.245Z,16.02
2022-10-21T09:04:02.316Z,16.41
2022-10-21T09:06:39.647Z,16.60
2022-10-21T09:09:28.424Z,16.66
2022-10-21T09:12:37.980Z,16.71
2022-10-21T09:15:11.192Z,16.74
2022-10-21T09:17:53.697Z,17.00
2022-10-21T09:20:34.472Z,17.17
2022-10-21T09:23:39.342Z,17.47
2022-10-21T09:26:41.723Z,17.61
2022-10-21T09:29:33.170Z,17.90
2022-10-21T09:32:09.699Z,17.87
2022-10-21T09:35:02.260Z,17.90
2022-10-21T09:37:36.097Z,17.58
2022-10-21T09:40:18.471Z,17.79
2022-10-21T09:42:47.815Z,18.19
2022-10-21T09:45:22.780Z,18.45
2022-10-21T09:47:54.977Z,18.72
2022-10-21T09:50:22.211Z,19.00
2022-10-21T09:52:53.422Z,19.22
2022-10-21T09:55:20.347Z,19.31
2022-10-21T09:58:25.453Z,19.45
2022-10-21T10:00:52.733Z,19.74
2022-10-21T10:03:33.107Z,19.75
2022-10-21T10:06:01.343Z,19.96
2022-10-21T10:08:29.061Z,19.86
2022-10-21T10:11:03.656Z,19.67
2022-10-21T10:13:32.254Z,19.96
2022-10-21T10:16:32.474Z,20.18
2022-10-21T10:19:16.120Z,20.40
2022-10-21T10:21:43.790Z,20.76
2022-10-21T10:24:18.815Z,20.97
2022-10-21T10:26:46.245Z,21.09
2022-10-21T10:29:16.725Z,21.49
2022-10-21T10:31:50.579Z,21.68
2022-10-21T10:34:55.129Z,22.09
2022-10-21T10:37:24.488Z,22.51
2022-10-21T10:39:53.506Z,22.65
2022-10-21T10:42:23.204Z,22.71
2022-10-21T10:44:54.990Z,22.78
2022-10-21T10:47:30.881Z,22.91
2022-10-21T10:49:58.125Z,22.80
2022-10-21T10:52:25.569Z,22.70
2022-10-21T10:55:10.806Z,22.42
2022-10-21T10:57:45.995Z,22.46
2022-10-21T11:00:25.376Z,22.26
2022-10-21T11:03:07.554Z,21.81
2022-10-21T11:05:42.800Z,22.03
2022-10-21T11:08:18.222Z,22.28
2022-10-21T11:10:49.434Z,22.39
2022-10-21T11:13:18.620Z,22.10
2022-10-21T11:15:51.768Z,22.05
2022-10-21T11:18:36.686Z,22.19
2022-10-21T11:21:22.649Z,22.43
2022-10-21T11:23:58.008Z,22.75
2022-10-21T11:26:29.125Z,22.77
2022-10-21T11:29:03.396Z,22.63
2022-10-21T11:31:53.874Z,22.54
2022-10-21T11:34:53.054Z,22.39
2022-10-21T11:37:45.760Z,21.94
2022-10-21T11:40:34.651Z,21.92
2022-10-21T11:43:35.925Z,21.99
2022-10-21T11:46:21.353Z,21.94
2022-10-21T11:48:57.239Z,21.42
2022-10-21T11:51:34.264Z,21.17
2022-10-21T11:54:10.849Z,21.06
2022-10-21T11:57:14.181Z,20.63
2022-10-21T11:59:52.429Z,20.43
2022-10-21T12:02:39.228Z,20.43
2022-10-21T12:05:22.914Z,20.41
2022-10-21T12:08:09.314Z,20.24
2022-10-21T12:10:43.281Z,19.54
2022-10-21T12:13:28.808Z,19.25
2022-10-21T12:16:05.456Z,18.94
2022-10-21T12:18:32.501Z,18.51
2022-10-21T12:21:02.286Z,18.56
2022-10-21T12:23:30.254Z,18.54
2022-10-21T12:26:20.115Z,18.35
2022-10-21T12:29:12.393Z,18.33
2022-10-21T12:31:45.660Z,18.31
2022-10-21T12:34:13.831Z,18.13
2022-10-21T12:36:45.760Z,18.21
2022-10-21T12:39:34.746Z,18.47
2022-10-21T12:42:16.401Z,18.75
2022-10-21T12:44:47.540Z,18.63
2022-10-21T12:47:35.063Z,18.35
2022-10-21T12:50:14.832Z,18.16
2022-10-21T12:52:42.306Z,18.29
2022-10-21T12:55:21.841Z,18.35
2022-10-21T12:57:56.927Z,18.40
2022-10-21T13:00:27.316Z,18.22
2022-10-21T13:03:06.362Z,17.98
2022-10-21T13:05:39.124Z,18.03
2022-10-21T13:08:22.941Z,18.22
2022-10-21T13:11:07.214Z,18.47
2022-10-21T13:13:41.650Z,18.63
2022-10-21T13:16:19.826Z,18.55
2022-10-21T13:18:58.376Z,18.12
2022-10-21T13:21:41.814Z,17.70
2022-10-21T13:24:13.570Z,17.45
2022-10-21T13:26:51.343Z,17.26
2022-10-21T13:29:28.393Z,17.03
2022-10-21T13:32:13.797Z,16.77
2022-10-21T13:34:42.789Z,16.61
2022-10-21T13:37:15.701Z,16.46
2022-10-21T13:39:43.113Z,16.39
2022-10-21T13:42:16.800Z,16.28
2022-10-21T13:44:53.508Z,16.28
2022-10-21T13:47:31.527Z,16.32
2022-10-21T13:50:13.657Z,16.25
2022-10-21T13:52:43.580Z,16.26
2022-10-21T13:55:18.720Z,16.25
2022-10-21T13:57:50.404Z,16.21
2022-10-21T14:00:22.248Z,16.23
2022-10-21T14:02:52.396Z,16.17
2022-10-21T14:05:30.543Z,16.06
2022-10-21T14:07:57.827Z,15.90
2022-10-21T14:10:24.840Z,15.76
2022-10-21T14:12:52.018Z,15.62
2022-10-21T14:15:22.202Z,15.50
2022-10-21T14:17:56.577Z,15.37
2022-10-21T14:20:29.862Z,15.20
2022-10-21T14:22:56.997Z,15.06
2022-10-21T14:25:24.730Z,14.88
2022-10-21T14:27:51.784Z,14.73
2022-10-21T14:30:23.459Z,14.60
2022-10-21T14:32:50.570Z,14.46
2022-10-21T14:35:21.219Z,14.34
2022-10-21T14:37:49.070Z,14.23
2022-10-21T14:40:35.861Z,14.10
2022-10-21T14:43:10.038Z,13.92
2022-10-21T14:45:46.245Z,13.75
2022-10-21T14:48:17.622Z,13.60
2022-10-21T14:50:52.941Z,13.45
2022-10-21T14:53:21.278Z,13.27
2022-10-21T14:55:48.529Z,13.11
2022-10-21T14:58:22.911Z,12.97
2022-10-21T15:01:01.406Z,12.80
2022-10-21T15:03:44.049Z,12.65
2022-10-21T15:06:23.867Z,12.52
2022-10-21T15:08:57.271Z,12.37
2022-10-21T15:11:28.935Z,12.21
2022-10-21T15:14:32.575Z,12.07
2022-10-21T15:17:02.185Z,11.91
2022-10-21T15:19:38.288Z,11.75
2022-10-21T15:22:05.710Z,11.62
2022-10-21T15:24:43.088Z,11.50
2022-10-21T15:27:18.962Z,11.38
2022-10-21T15:29:47.913Z,11.25
2022-10-21T15:32:19.200Z,11.15
2022-10-21T15:37:18.994Z,10.94
2022-10-21T15:39:46.120Z,10.86
2022-10-21T15:42:15.220Z,10.79
2022-10-21T15:44:42.633Z,10.73
2022-10-21T15:47:11.397Z,10.67
2022-10-21T15:49:41.344Z,10.62
2022-10-21T15:52:08.526Z,10.58
2022-10-21T15:54:35.746Z,10.55
2022-10-21T15:57:04.881Z,10.52
2022-10-21T15:59:33.755Z,10.49
2022-10-21T16:02:00.970Z,10.44
2022-10-21T16:04:28.440Z,10.42
2022-10-21T16:06:55.655Z,10.38
2022-10-21T16:09:25.386Z,10.33
2022-10-21T16:11:59.376Z,10.28
2022-10-21T16:14:30.048Z,10.23
2022-10-21T16:16:58.642Z,10.19
2022-10-21T16:19:25.711Z,10.15
2022-10-21T16:21:54.648Z,10.12
2022-10-21T16:24:21.884Z,10.10
2022-10-21T16:26:49.305Z,10.07
2022-10-21T16:31:52.068Z,10.02
2022-10-21T16:34:19.501Z,9.99
2022-10-21T16:36:46.637Z,9.96
2022-10-21T16:39:18.977Z,9.94
2022-10-21T16:41:46.550Z,9.91
2022-10-21T16:44:15.001Z,9.89
2022-10-21T16:47:03.514Z,9.83
2022-10-21T16:49:31.070Z,9.77
2022-10-21T16:52:00.526Z,9.73
2022-10-21T16:54:29.356Z,9.68
2022-10-21T16:56:56.568Z,9.64
2022-10-21T16:59:23.859Z,9.60
2022-10-21T17:01:51.876Z,9.52
2022-10-21T17:04:19.071Z,9.45
2022-10-21T17:06:46.519Z,9.40
2022-10-21T17:09:13.989Z,9.34
2022-10-21T17:12:12.650Z,9.30
2022-10-21T17:14:39.824Z,9.21
2022-10-21T17:17:07.074Z,9.15
2022-10-21T17:19:34.420Z,9.12
2022-10-21T17:22:01.619Z,9.07
2022-10-21T17:24:28.956Z,9.02
2022-10-21T17:26:57.562Z,8.97
2022-10-21T17:29:24.857Z,8.91
2022-10-21T17:31:52.058Z,8.87
2022-10-21T17:34:28.171Z,8.84
2022-10-21T17:36:55.424Z,8.79
2022-10-21T17:39:23.046Z,8.73
2022-10-21T17:41:50.449Z,8.66
2022-10-21T17:44:17.566Z,8.57
2022-10-21T17:46:47.698Z,8.50
2022-10-21T17:49:14.931Z,8.43
2022-10-21T17:51:42.876Z,8.37
2022-10-21T17:54:10.493Z,8.33
2022-10-21T17:56:38.385Z,8.31
2022-10-21T17:59:05.525Z,8.30
2022-10-21T18:01:33.306Z,8.28
2022-10-21T18:04:01.178Z,8.27
2022-10-21T18:06:29.920Z,8.28
2022-10-21T18:08:58.210Z,8.29
2022-10-21T18:11:25.494Z,8.31
2022-10-21T18:13:56.226Z,8.31
2022-10-21T18:16:23.753Z,8.32
2022-10-21T18:18:58.745Z,8.33
2022-10-21T18:21:29.971Z,8.33
2022-10-21T18:23:57.108Z,8.34
2022-10-21T18:26:25.985Z,8.35
2022-10-21T18:29:02.184Z,8.36
2022-10-21T18:31:31.638Z,8.39
2022-10-21T18:33:59.600Z,8.39
2022-10-21T18:36:27.220Z,8.36
2022-10-21T18:38:54.622Z,8.34
2022-10-21T18:41:23.001Z,8.33
2022-10-21T18:43:51.995Z,8.31
2022-10-21T18:46:19.994Z,8.30
2022-10-21T18:48:48.745Z,8.28
2022-10-21T18:51:20.258Z,8.25
2022-10-21T18:53:52.787Z,8.22
2022-10-21T18:56:21.652Z,8.19
2022-10-21T18:58:48.934Z,8.16
2022-10-21T19:01:19.451Z,8.12
2022-10-21T19:03:46.942Z,8.08
2022-10-21T19:06:46.166Z,8.05
2022-10-21T19:09:17.210Z,8.00
2022-10-21T19:11:46.919Z,7.94
2022-10-21T19:14:17.061Z,7.86
2022-10-21T19:16:48.315Z,7.79
2022-10-21T19:19:16.946Z,7.72
2022-10-21T19:21:44.270Z,7.67
2022-10-21T19:24:11.530Z,7.62
2022-10-21T19:26:40.501Z,7.56
2022-10-21T19:29:13.543Z,7.51
2022-10-21T19:31:42.296Z,7.46
2022-10-21T19:34:21.632Z,7.40
2022-10-21T19:36:50.055Z,8.02
2022-10-21T19:39:24.447Z,8.72
2022-10-21T19:41:51.565Z,8.92
2022-10-21T19:44:19.205Z,8.85
2022-10-21T19:46:46.714Z,8.68
2022-10-21T19:49:16.335Z,8.49
2022-10-21T19:51:45.173Z,8.30
2022-10-21T19:54:12.808Z,8.15
2022-10-21T19:56:40.123Z,8.01
2022-10-21T19:59:07.576Z,7.89
2022-10-21T20:01:35.241Z,7.80
2022-10-21T20:04:02.935Z,7.72
2022-10-21T20:06:34.384Z,7.67
2022-10-21T20:09:03.960Z,7.62
2022-10-21T20:11:35.959Z,7.57
2022-10-21T20:14:04.364Z,7.51
2022-10-21T20:16:38.055Z,7.45
2022-10-21T20:19:06.422Z,7.37
2022-10-21T20:21:35.871Z,7.31
2022-10-21T20:24:03.539Z,7.27
2022-10-21T20:26:34.285Z,7.26
2022-10-21T20:29:02.110Z,7.25
2022-10-21T20:31:29.577Z,7.22
2022-10-21T20:33:56.694Z,7.84
2022-10-21T20:36:25.396Z,8.60
2022-10-21T20:38:53.160Z,8.80
2022-10-21T20:41:22.676Z,8.74
2022-10-21T20:43:51.197Z,8.57
2022-10-21T20:46:19.015Z,8.37
2022-10-21T20:48:48.326Z,8.18
2022-10-21T20:51:19.609Z,8.02
2022-10-21T20:54:00.841Z,7.87
2022-10-21T20:56:32.377Z,7.74
2022-10-21T20:58:59.603Z,7.64
2022-10-21T21:01:33.494Z,7.59
2022-10-21T21:04:02.280Z,7.56
2022-10-21T21:06:29.803Z,7.52
2022-10-21T21:09:29.094Z,8.09
2022-10-21T21:11:46.569Z,8.87
2022-10-21T21:14:14.290Z,9.01
2022-10-21T21:16:43.309Z,8.90
2022-10-21T21:19:11.594Z,8.71
2022-10-21T21:22:53.182Z,8.28
2022-10-21T21:25:20.159Z,8.20
2022-10-21T21:27:47.082Z,8.06
2022-10-21T21:30:14.659Z,7.97
2022-10-21T21:32:42.029Z,7.89
2022-10-21T21:35:09.468Z,7.80
2022-10-21T21:37:36.512Z,7.73
2022-10-21T21:40:06.920Z,7.69
2022-10-21T21:42:34.430Z,7.68
2022-10-21T21:45:01.454Z,7.66
2022-10-21T21:47:28.469Z,7.64
2022-10-21T21:49:55.430Z,7.64
2022-10-21T21:52:22.873Z,7.62
2022-10-21T21:54:54.404Z,7.61
2022-10-21T21:57:27.915Z,7.61
2022-10-21T21:59:55.376Z,7.58
2022-10-21T22:02:22.387Z,8.18
2022-10-21T22:04:49.456Z,8.93
2022-10-21T22:07:16.524Z,9.15
2022-10-21T22:09:43.547Z,9.08
2022-10-21T22:12:14.400Z,8.91
2022-10-21T22:14:42.253Z,8.70
2022-10-21T22:17:09.185Z,8.53
2022-10-21T22:19:36.348Z,8.38
2022-10-21T22:22:03.636Z,8.28
2022-10-21T22:27:04.746Z,8.11
2022-10-21T22:29:31.825Z,8.02
2022-10-21T22:31:59.066Z,7.95
2022-10-21T22:34:26.060Z,7.90
2022-10-21T22:36:53.191Z,7.83
2022-10-21T22:39:20.083Z,7.75
2022-10-21T22:41:47.278Z,7.67
2022-10-21T22:44:14.678Z,7.62
2022-10-21T22:46:41.608Z,7.57
2022-10-21T22:49:09.925Z,7.52
2022-10-21T22:51:37.013Z,7.48
2022-10-21T22:54:05.617Z,7.43
2022-10-21T22:56:37.563Z,7.39
2022-10-21T22:59:05.325Z,7.98
2022-10-21T23:01:32.637Z,8.72
2022-10-21T23:04:03.775Z,8.90
2022-10-21T23:06:31.566Z,8.79
2022-10-21T23:09:01.065Z,8.62
2022-10-21T23:11:28.629Z,8.47
2022-10-21T23:14:03.480Z,8.34
2022-10-21T23:16:35.198Z,8.21
2022-10-21T23:19:02.474Z,8.08
2022-10-21T23:21:30.149Z,7.97
2022-10-21T23:23:57.278Z,7.89
2022-10-21T23:26:24.410Z,7.83
2022-10-21T23:28:51.361Z,7.79
2022-10-21T23:31:18.335Z,7.76
2022-10-21T23:33:45.510Z,7.76
2022-10-21T23:36:12.573Z,7.74
2022-10-21T23:38:39.595Z,8.37
2022-10-21T23:41:06.847Z,9.16
2022-10-21T23:43:33.740Z,9.37
2022-10-21T23:46:00.831Z,9.29
2022-10-21T23:48:27.967Z,9.13
2022-10-21T23:50:54.847Z,8.98
2022-10-21T23:53:22.285Z,8.84
2022-10-21T23:55:49.167Z,8.72
2022-10-21T23:58:16.169Z,8.61
